createdAt,value
2022-08-01T00:00:06.904Z,82.20
2022-08-01T00:02:37.555Z,82.10
2022-08-01T00:05:06.867Z,82.20
2022-08-01T00:07:34.484Z,82.10
2022-08-01T00:10:01.567Z,82.20
2022-08-01T00:12:28.324Z,82.30
2022-08-01T00:14:55.035Z,82.30
2022-08-01T00:17:21.764Z,82.30
2022-08-01T00:19:48.506Z,82.40
2022-08-01T00:22:15.217Z,82.40
2022-08-01T00:24:41.963Z,82.40
2022-08-01T00:27:08.733Z,82.40
2022-08-01T00:30:10.989Z,82.40
2022-08-01T00:32:22.308Z,82.50
2022-08-01T00:34:49.089Z,82.50
2022-08-01T00:37:16.724Z,82.60
2022-08-01T00:39:43.643Z,82.60
2022-08-01T00:42:12.199Z,82.60
2022-08-01T00:44:39.278Z,82.80
2022-08-01T00:47:07.086Z,82.80
2022-08-01T00:49:34.235Z,82.90
2022-08-01T00:52:01.459Z,82.80
2022-08-01T00:54:28.683Z,83.10
2022-08-01T00:56:56.737Z,83.20
2022-08-01T00:59:25.821Z,83.20
2022-08-01T01:01:53.602Z,83.40
2022-08-01T01:04:20.660Z,83.50
2022-08-01T01:07:05.981Z,83.60
2022-08-01T01:09:58.697Z,83.60
2022-08-01T01:12:50.104Z,83.40
2022-08-01T01:15:27.442Z,83.50
2022-08-01T01:18:01.552Z,83.20
2022-08-01T01:20:40.787Z,83.40
2022-08-01T01:23:22.253Z,83.30
2022-08-01T01:26:15.122Z,83.30
2022-08-01T01:29:01.469Z,83.20
2022-08-01T01:31:29.522Z,83.40
2022-08-01T01:33:58.917Z,83.70
2022-08-01T01:36:27.459Z,83.90
2022-08-01T01:38:55.855Z,83.80
2022-08-01T01:41:24.116Z,83.90
2022-08-01T01:43:52.680Z,83.90
2022-08-01T01:46:24.420Z,84.00
2022-08-01T01:48:52.682Z,84.00
2022-08-01T01:51:23.095Z,84.00
2022-08-01T01:53:51.965Z,84.00
2022-08-01T01:56:21.035Z,84.00
2022-08-01T01:58:52.197Z,84.20
2022-08-01T02:01:57.949Z,84.30
2022-08-01T02:04:07.812Z,84.20
2022-08-01T02:06:35.576Z,84.10
2022-08-01T02:09:03.204Z,84.10
2022-08-01T02:11:30.520Z,84.20
2022-08-01T02:14:02.612Z,84.20
2022-08-01T02:16:36.079Z,84.30
2022-08-01T02:19:04.255Z,84.20
2022-08-01T02:21:48.539Z,84.30
2022-08-01T02:24:22.275Z,84.00
2022-08-01T02:27:03.232Z,84.00
2022-08-01T02:29:42.976Z,83.90
2022-08-01T02:32:15.044Z,84.00
2022-08-01T02:34:45.076Z,84.10
2022-08-01T02:37:12.321Z,84.10
2022-08-01T02:39:40.603Z,84.10
2022-08-01T02:42:09.043Z,84.20
2022-08-01T02:44:40.225Z,84.10
2022-08-01T02:47:07.308Z,84.10
2022-08-01T02:49:42.843Z,84.10
2022-08-01T02:52:13.469Z,84.30
2022-08-01T02:54:42.669Z,85.20
2022-08-01T02:57:13.790Z,84.40
2022-08-01T02:59:43.373Z,84.30
2022-08-01T03:02:12.722Z,84.40
2022-08-01T03:04:41.511Z,84.60
2022-08-01T03:07:10.493Z,84.60
2022-08-01T03:09:44.317Z,84.70
2022-08-01T03:12:24.804Z,84.60
2022-08-01T03:14:55.020Z,84.50
2022-08-01T03:17:25.546Z,84.60
2022-08-01T03:19:54.227Z,84.50
2022-08-01T03:22:24.057Z,84.50
2022-08-01T03:24:53.252Z,84.60
2022-08-01T03:27:25.303Z,84.60
2022-08-01T03:29:55.648Z,84.70
2022-08-01T03:32:22.927Z,84.70
2022-08-01T03:34:50.002Z,84.70
2022-08-01T03:37:28.863Z,84.60
2022-08-01T03:40:01.602Z,84.50
2022-08-01T03:42:44.831Z,84.50
2022-08-01T03:45:22.415Z,84.40
2022-08-01T03:47:52.065Z,84.50
2022-08-01T03:50:21.891Z,84.50
2022-08-01T03:52:50.873Z,84.40
2022-08-01T03:55:19.571Z,84.30
2022-08-01T03:57:48.010Z,84.40
2022-08-01T04:00:19.273Z,84.40
2022-08-01T04:02:50.284Z,84.40
2022-08-01T04:05:18.019Z,84.30
2022-08-01T04:07:56.483Z,84.40
2022-08-01T04:10:24.545Z,84.50
2022-08-01T04:12:51.732Z,85.10
2022-08-01T04:15:19.100Z,84.90
2022-08-01T04:17:45.787Z,84.90
2022-08-01T04:20:12.616Z,84.80
2022-08-01T04:22:40.222Z,84.80
2022-08-01T04:25:13.303Z,84.70
2022-08-01T04:27:50.943Z,84.70
2022-08-01T04:30:30.811Z,84.80
2022-08-01T04:33:00.098Z,84.90
2022-08-01T04:36:02.019Z,84.80
2022-08-01T04:38:20.299Z,84.70
2022-08-01T04:40:47.679Z,84.70
2022-08-01T04:43:15.201Z,84.60
2022-08-01T04:45:44.646Z,84.70
2022-08-01T04:48:13.238Z,84.60
2022-08-01T04:50:42.735Z,84.40
2022-08-01T04:53:22.759Z,84.30
2022-08-01T04:55:49.741Z,84.00
2022-08-01T04:58:18.545Z,83.80
2022-08-01T05:00:46.536Z,84.10
2022-08-01T05:03:13.759Z,83.40
2022-08-01T05:05:40.576Z,83.30
2022-08-01T05:08:07.482Z,83.30
2022-08-01T05:10:34.767Z,83.30
2022-08-01T05:13:01.658Z,83.10
2022-08-01T05:15:28.390Z,83.00
2022-08-01T05:17:55.549Z,83.00
2022-08-01T05:20:22.379Z,82.90
2022-08-01T05:22:49.283Z,83.00
2022-08-01T05:25:20.010Z,83.10
2022-08-01T05:27:50.817Z,83.10
2022-08-01T05:30:18.169Z,83.20
2022-08-01T05:32:44.900Z,83.40
2022-08-01T05:35:11.742Z,83.70
2022-08-01T05:37:38.480Z,83.70
2022-08-01T05:40:06.589Z,83.80
2022-08-01T05:42:33.322Z,83.70
2022-08-01T05:45:00.101Z,83.50
2022-08-01T05:47:26.881Z,83.50
2022-08-01T05:49:53.611Z,83.60
2022-08-01T05:52:20.357Z,83.80
2022-08-01T05:54:47.099Z,83.90
2022-08-01T05:57:13.796Z,84.70
2022-08-01T05:59:42.032Z,84.60
2022-08-01T06:02:09.405Z,83.80
2022-08-01T06:04:36.533Z,83.70
2022-08-01T06:07:03.292Z,83.50
2022-08-01T06:09:31.611Z,83.40
2022-08-01T06:11:58.589Z,83.30
2022-08-01T06:14:25.260Z,83.20
2022-08-01T06:16:51.974Z,83.20
2022-08-01T06:19:18.996Z,82.90
2022-08-01T06:21:45.747Z,83.00
2022-08-01T06:24:12.545Z,83.10
2022-08-01T06:26:39.371Z,83.20
2022-08-01T06:29:06.078Z,83.20
2022-08-01T06:31:34.006Z,83.00
2022-08-01T06:34:00.980Z,83.10
2022-08-01T06:36:27.795Z,83.10
2022-08-01T06:38:54.533Z,83.20
2022-08-01T06:41:21.290Z,83.20
2022-08-01T06:43:48.004Z,83.10
2022-08-01T06:46:14.770Z,83.10
2022-08-01T06:48:41.601Z,83.10
2022-08-01T06:51:14.493Z,83.10
2022-08-01T06:53:41.260Z,83.20
2022-08-01T06:56:09.579Z,83.40
2022-08-01T06:58:36.692Z,83.60
2022-08-01T07:01:06.951Z,83.90
2022-08-01T07:03:54.449Z,83.80
2022-08-01T07:06:23.317Z,83.50
2022-08-01T07:08:50.005Z,83.40
2022-08-01T07:11:16.811Z,83.20
2022-08-01T07:13:45.548Z,83.20
2022-08-01T07:16:19.812Z,83.40
2022-08-01T07:18:48.690Z,83.50
2022-08-01T07:21:40.463Z,83.40
2022-08-01T07:24:13.729Z,83.30
2022-08-01T07:26:52.223Z,84.20
2022-08-01T07:29:33.147Z,83.40
2022-08-01T07:32:00.717Z,83.40
2022-08-01T07:34:30.439Z,83.50
2022-08-01T07:37:01.084Z,83.40
2022-08-01T07:39:34.111Z,83.00
2022-08-01T07:42:12.810Z,83.30
2022-08-01T07:44:43.120Z,83.20
2022-08-01T07:47:19.367Z,82.40
2022-08-01T07:49:50.408Z,82.10
2022-08-01T07:52:21.939Z,82.00
2022-08-01T07:54:52.114Z,81.70
2022-08-01T07:57:20.493Z,81.50
2022-08-01T08:00:04.190Z,81.40
2022-08-01T08:02:31.891Z,81.20
2022-08-01T08:05:02.661Z,81.00
2022-08-01T08:07:31.236Z,81.00
2022-08-01T08:10:02.757Z,80.50
2022-08-01T08:12:49.524Z,80.10
2022-08-01T08:15:25.985Z,80.20
2022-08-01T08:17:55.344Z,79.90
2022-08-01T08:20:26.176Z,79.80
2022-08-01T08:22:53.632Z,79.80
2022-08-01T08:25:23.088Z,79.50
2022-08-01T08:27:54.790Z,79.50
2022-08-01T08:30:22.061Z,79.20
2022-08-01T08:32:49.327Z,79.10
2022-08-01T08:35:53.853Z,78.70
2022-08-01T08:38:16.470Z,78.20
2022-08-01T08:40:47.893Z,77.70
2022-08-01T08:43:16.798Z,77.60
2022-08-01T08:45:58.948Z,77.00
2022-08-01T08:48:39.346Z,76.40
2022-08-01T08:51:14.501Z,76.20
2022-08-01T08:53:46.316Z,76.30
2022-08-01T08:56:15.375Z,76.50
2022-08-01T08:58:46.148Z,76.10
2022-08-01T09:01:13.711Z,76.40
2022-08-01T09:03:41.485Z,75.60
2022-08-01T09:06:13.624Z,75.20
2022-08-01T09:08:42.342Z,74.90
2022-08-01T09:11:23.366Z,74.20
2022-08-01T09:14:31.895Z,73.50
2022-08-01T09:17:12.314Z,73.00
2022-08-01T09:19:59.119Z,72.20
2022-08-01T09:22:34.718Z,72.40
2022-08-01T09:25:09.635Z,72.10
2022-08-01T09:27:46.422Z,71.40
2022-08-01T09:30:23.718Z,71.00
2022-08-01T09:33:11.277Z,70.20
2022-08-01T09:35:59.115Z,69.20
2022-08-01T09:38:30.173Z,68.90
2022-08-01T09:41:01.632Z,68.70
2022-08-01T09:43:34.328Z,69.00
2022-08-01T09:46:15.915Z,67.40
2022-08-01T09:49:10.682Z,67.80
2022-08-01T09:51:58.510Z,66.90
2022-08-01T09:54:35.818Z,65.10
2022-08-01T09:57:21.934Z,65.80
2022-08-01T10:00:00.822Z,64.70
2022-08-01T10:02:37.457Z,63.50
2022-08-01T10:05:11.180Z,63.10
2022-08-01T10:07:59.576Z,63.20
2022-08-01T10:10:28.691Z,62.90
2022-08-01T10:12:58.880Z,62.80
2022-08-01T10:15:36.917Z,62.80
2022-08-01T10:18:16.772Z,62.00
2022-08-01T10:20:56.325Z,61.90
2022-08-01T10:23:39.780Z,61.50
2022-08-01T10:26:09.257Z,60.80
2022-08-01T10:28:39.310Z,59.50
2022-08-01T10:31:12.638Z,59.30
2022-08-01T10:33:51.575Z,59.20
2022-08-01T10:36:22.726Z,58.10
2022-08-01T10:38:50.274Z,58.20
2022-08-01T10:41:19.513Z,58.80
2022-08-01T10:43:46.271Z,59.10
2022-08-01T10:46:14.350Z,58.70
2022-08-01T10:49:02.611Z,58.00
2022-08-01T10:51:52.232Z,57.70
2022-08-01T10:54:16.979Z,57.70
2022-08-01T10:56:49.745Z,58.00
2022-08-01T10:59:49.326Z,58.60
2022-08-01T11:02:31.906Z,58.80
2022-08-01T11:05:10.332Z,58.50
2022-08-01T11:07:49.722Z,59.60
2022-08-01T11:10:31.875Z,58.30
2022-08-01T11:13:01.943Z,58.00
2022-08-01T11:15:31.617Z,58.30
2022-08-01T11:18:00.926Z,58.90
2022-08-01T11:20:31.358Z,57.00
2022-08-01T11:23:02.086Z,56.90
2022-08-01T11:26:05.678Z,56.70
2022-08-01T11:28:34.687Z,57.10
2022-08-01T11:31:11.719Z,57.50
2022-08-01T11:33:49.422Z,56.30
2022-08-01T11:36:36.962Z,55.10
2022-08-01T11:39:13.746Z,54.30
2022-08-01T11:41:42.208Z,54.20
2022-08-01T11:44:18.407Z,53.30
2022-08-01T11:46:56.420Z,51.80
2022-08-01T11:49:33.105Z,51.90
2022-08-01T11:52:05.419Z,51.00
2022-08-01T11:54:36.300Z,50.20
2022-08-01T11:57:07.110Z,49.70
2022-08-01T11:59:59.818Z,49.70
2022-08-01T12:02:39.162Z,49.30
2022-08-01T12:05:12.787Z,49.60
2022-08-01T12:07:42.564Z,49.70
2022-08-01T12:10:17.152Z,48.60
2022-08-01T12:12:55.248Z,48.40
2022-08-01T12:15:25.109Z,49.50
2022-08-01T12:17:59.570Z,48.00
2022-08-01T12:20:56.258Z,47.50
2022-08-01T12:23:24.968Z,47.70
2022-08-01T12:25:54.789Z,47.50
2022-08-01T12:28:22.072Z,47.10
2022-08-01T12:30:50.224Z,47.40
2022-08-01T12:33:22.138Z,47.40
2022-08-01T12:35:50.130Z,47.80
2022-08-01T12:38:27.782Z,48.00
2022-08-01T12:40:54.771Z,47.80
2022-08-01T12:43:28.171Z,46.50
2022-08-01T12:45:58.745Z,46.30
2022-08-01T12:48:26.262Z,46.50
2022-08-01T12:50:54.360Z,46.20
2022-08-01T12:53:22.382Z,44.50
2022-08-01T12:55:58.764Z,44.90
2022-08-01T12:58:32.705Z,45.40
2022-08-01T13:01:13.958Z,44.00
2022-08-01T13:03:41.088Z,43.80
2022-08-01T13:06:15.227Z,43.00
2022-08-01T13:08:41.958Z,43.30
2022-08-01T13:11:11.063Z,43.60
2022-08-01T13:13:52.100Z,42.20
2022-08-01T13:16:31.011Z,43.00
2022-08-01T13:19:06.368Z,43.70
2022-08-01T13:21:52.164Z,44.70
2022-08-01T13:24:30.355Z,44.90
2022-08-01T13:27:04.218Z,44.50
2022-08-01T13:29:35.151Z,44.90
2022-08-01T13:32:28.790Z,44.80
2022-08-01T13:35:08.852Z,44.70
2022-08-01T13:37:40.300Z,44.00
2022-08-01T13:40:09.089Z,43.90
2022-08-01T13:42:36.075Z,43.80
2022-08-01T13:45:04.444Z,44.10
2022-08-01T13:47:41.233Z,44.00
2022-08-01T13:50:28.664Z,43.60
2022-08-01T13:52:55.379Z,42.60
2022-08-01T13:55:22.113Z,42.10
2022-08-01T13:57:48.856Z,41.60
2022-08-01T14:00:16.119Z,40.30
2022-08-01T14:02:42.885Z,41.00
2022-08-01T14:05:09.820Z,41.10
2022-08-01T14:07:36.536Z,40.70
2022-08-01T14:10:18.413Z,40.40
2022-08-01T14:12:48.512Z,41.40
2022-08-01T14:15:18.187Z,41.80
2022-08-01T14:18:02.182Z,40.80
2022-08-01T14:20:29.384Z,41.10
2022-08-01T14:22:56.230Z,41.00
2022-08-01T14:25:23.981Z,41.40
2022-08-01T14:28:09.634Z,40.90
2022-08-01T14:30:36.902Z,40.40
2022-08-01T14:33:03.801Z,40.20
2022-08-01T14:35:30.495Z,40.70
2022-08-01T14:38:31.137Z,39.80
2022-08-01T14:41:04.225Z,39.80
2022-08-01T14:43:33.639Z,40.60
2022-08-01T14:46:01.915Z,40.80
2022-08-01T14:48:30.165Z,41.50
2022-08-01T14:50:58.157Z,41.10
2022-08-01T14:53:24.823Z,40.90
2022-08-01T14:55:51.515Z,40.50
2022-08-01T14:58:18.238Z,40.10
2022-08-01T15:00:45.122Z,40.60
2022-08-01T15:03:11.907Z,40.90
2022-08-01T15:05:38.645Z,41.70
2022-08-01T15:08:06.778Z,41.70
2022-08-01T15:10:33.503Z,41.60
2022-08-01T15:13:01.102Z,41.80
2022-08-01T15:15:28.569Z,41.70
2022-08-01T15:17:55.342Z,41.50
2022-08-01T15:20:22.130Z,41.80
2022-08-01T15:22:49.431Z,41.10
2022-08-01T15:25:16.348Z,40.80
2022-08-01T15:27:43.402Z,40.40
2022-08-01T15:30:10.381Z,40.50
2022-08-01T15:32:37.271Z,41.00
2022-08-01T15:35:04.283Z,41.30
2022-08-01T15:37:30.986Z,41.00
2022-08-01T15:39:57.751Z,40.60
2022-08-01T15:42:27.117Z,39.20
2022-08-01T15:44:54.456Z,40.00
2022-08-01T15:47:21.272Z,40.70
2022-08-01T15:49:52.229Z,38.20
2022-08-01T15:52:21.986Z,39.00
2022-08-01T15:54:50.196Z,39.60
2022-08-01T15:57:17.542Z,40.40
2022-08-01T15:59:46.288Z,41.20
2022-08-01T16:02:14.428Z,41.50
2022-08-01T16:04:41.259Z,41.50
2022-08-01T16:07:08.314Z,41.50
2022-08-01T16:09:37.151Z,41.70
2022-08-01T16:12:04.228Z,41.50
2022-08-01T16:14:31.221Z,41.50
2022-08-01T16:16:57.916Z,41.20
2022-08-01T16:19:24.572Z,41.60
2022-08-01T16:21:52.255Z,41.50
2022-08-01T16:24:19.009Z,42.40
2022-08-01T16:26:45.790Z,42.90
2022-08-01T16:29:12.601Z,42.00
2022-08-01T16:31:51.460Z,41.50
2022-08-01T16:34:26.129Z,41.70
2022-08-01T16:36:55.248Z,42.00
2022-08-01T16:39:23.549Z,42.70
2022-08-01T16:41:54.894Z,43.50
2022-08-01T16:44:26.933Z,43.80
2022-08-01T16:47:02.006Z,43.70
2022-08-01T16:49:28.804Z,43.90
2022-08-01T16:51:55.543Z,44.50
2022-08-01T16:54:24.910Z,45.00
2022-08-01T16:56:53.654Z,44.50
2022-08-01T16:59:20.551Z,43.80
2022-08-01T17:02:00.074Z,43.90
2022-08-01T17:04:28.722Z,44.60
2022-08-01T17:06:55.481Z,45.00
2022-08-01T17:09:22.268Z,45.20
2022-08-01T17:11:49.140Z,45.60
2022-08-01T17:14:15.861Z,45.90
2022-08-01T17:16:42.767Z,46.00
2022-08-01T17:19:09.557Z,46.30
2022-08-01T17:21:39.796Z,46.60
2022-08-01T17:24:08.230Z,46.80
2022-08-01T17:26:35.188Z,46.90
2022-08-01T17:29:01.899Z,47.10
2022-08-01T17:31:28.688Z,47.20
2022-08-01T17:33:55.555Z,47.40
2022-08-01T17:36:22.385Z,47.40
2022-08-01T17:38:49.079Z,48.50
2022-08-01T17:41:18.726Z,47.40
2022-08-01T17:43:45.537Z,47.40
2022-08-01T17:46:12.245Z,47.40
2022-08-01T17:48:39.098Z,47.80
2022-08-01T17:51:06.336Z,47.70
2022-08-01T17:53:35.598Z,47.80
2022-08-01T17:56:05.515Z,47.90
2022-08-01T17:58:49.569Z,47.90
2022-08-01T18:01:19.042Z,48.40
2022-08-01T18:03:46.154Z,48.60
2022-08-01T18:06:15.620Z,49.00
2022-08-01T18:08:48.711Z,49.10
2022-08-01T18:11:16.416Z,49.30
2022-08-01T18:13:43.699Z,49.70
2022-08-01T18:16:14.584Z,49.90
2022-08-01T18:18:43.379Z,50.10
2022-08-01T18:21:11.856Z,50.10
2022-08-01T18:23:38.880Z,50.30
2022-08-01T18:26:08.655Z,50.20
2022-08-01T18:28:42.050Z,50.40
2022-08-01T18:31:16.373Z,50.70
2022-08-01T18:33:43.273Z,50.60
2022-08-01T18:36:23.169Z,50.70
2022-08-01T18:38:57.331Z,50.90
2022-08-01T18:41:24.818Z,51.20
2022-08-01T18:43:52.340Z,51.50
2022-08-01T18:46:30.900Z,52.00
2022-08-01T18:48:58.101Z,52.00
2022-08-01T18:51:26.412Z,52.30
2022-08-01T18:53:57.611Z,52.30
2022-08-01T18:56:24.351Z,52.40
2022-08-01T18:58:51.225Z,52.50
2022-08-01T19:01:18.103Z,52.70
2022-08-01T19:03:45.060Z,52.80
2022-08-01T19:06:14.969Z,52.90
2022-08-01T19:08:41.785Z,53.30
2022-08-01T19:11:08.501Z,53.90
2022-08-01T19:13:35.462Z,53.70
2022-08-01T19:16:02.214Z,53.70
2022-08-01T19:18:28.960Z,54.00
2022-08-01T19:20:58.381Z,54.10
2022-08-01T19:23:43.625Z,54.00
2022-08-01T19:26:13.477Z,54.40
2022-08-01T19:28:50.235Z,54.50
2022-08-01T19:31:18.891Z,54.70
2022-08-01T19:33:46.150Z,54.80
2022-08-01T19:36:17.503Z,54.80
2022-08-01T19:38:45.323Z,54.70
2022-08-01T19:41:13.811Z,55.00
2022-08-01T19:43:46.176Z,55.10
2022-08-01T19:46:17.373Z,55.30
2022-08-01T19:48:53.615Z,55.90
2022-08-01T19:51:22.765Z,57.10
2022-08-01T19:54:04.483Z,56.30
2022-08-01T19:56:39.574Z,56.10
2022-08-01T19:59:08.207Z,56.60
2022-08-01T20:01:37.523Z,57.00
2022-08-01T20:04:06.166Z,57.30
2022-08-01T20:06:34.761Z,57.30
2022-08-01T20:09:03.151Z,57.80
2022-08-01T20:11:29.847Z,58.00
2022-08-01T20:13:57.123Z,58.50
2022-08-01T20:16:28.472Z,58.60
2022-08-01T20:18:56.140Z,59.00
2022-08-01T20:21:26.547Z,59.40
2022-08-01T20:24:03.042Z,59.80
2022-08-01T20:26:31.164Z,59.70
2022-08-01T20:28:58.020Z,60.20
2022-08-01T20:31:43.124Z,60.60
2022-08-01T20:34:15.571Z,61.00
2022-08-01T20:36:54.403Z,61.20
2022-08-01T20:39:26.592Z,61.70
2022-08-01T20:41:59.598Z,62.00
2022-08-01T20:44:27.410Z,63.10
2022-08-01T20:46:54.842Z,62.60
2022-08-01T20:49:22.665Z,63.00
2022-08-01T20:51:50.711Z,63.50
2022-08-01T20:54:17.525Z,63.70
2022-08-01T20:56:49.851Z,63.90
2022-08-01T20:59:51.625Z,64.10
2022-08-01T21:02:50.211Z,65.30
2022-08-01T21:05:40.176Z,64.70
2022-08-01T21:08:43.989Z,65.00
2022-08-01T21:11:19.480Z,65.20
2022-08-01T21:13:48.973Z,65.60
2022-08-01T21:16:23.676Z,65.70
2022-08-01T21:19:17.176Z,66.00
2022-08-01T21:21:48.177Z,66.40
2022-08-01T21:24:21.936Z,66.60
2022-08-01T21:26:50.141Z,66.90
2022-08-01T21:29:18.031Z,67.10
2022-08-01T21:32:07.040Z,67.10
2022-08-01T21:34:38.132Z,67.30
2022-08-01T21:37:09.307Z,67.40
2022-08-01T21:39:37.248Z,67.70
2022-08-01T21:42:09.424Z,67.80
2022-08-01T21:44:42.315Z,68.00
2022-08-01T21:47:11.942Z,68.20
2022-08-01T21:49:42.314Z,68.00
2022-08-01T21:52:18.200Z,68.30
2022-08-01T21:55:10.800Z,68.70
2022-08-01T21:58:10.497Z,68.70
2022-08-01T22:00:40.645Z,68.70
2022-08-01T22:03:23.098Z,68.90
2022-08-01T22:05:51.670Z,69.10
2022-08-01T22:08:32.896Z,69.20
2022-08-01T22:11:06.438Z,69.30
2022-08-01T22:13:35.467Z,69.30
2022-08-01T22:16:04.260Z,69.40
2022-08-01T22:18:32.999Z,69.50
2022-08-01T22:21:02.622Z,69.80
2022-08-01T22:23:30.586Z,69.80
2022-08-01T22:25:57.413Z,69.90
2022-08-01T22:28:24.592Z,69.80
2022-08-01T22:30:52.583Z,69.80
2022-08-01T22:33:20.232Z,69.90
2022-08-01T22:35:49.441Z,70.00
2022-08-01T22:38:20.747Z,70.10
2022-08-01T22:41:03.344Z,70.10
2022-08-01T22:44:08.055Z,70.10
2022-08-01T22:46:52.898Z,70.20
2022-08-01T22:49:47.946Z,70.30
2022-08-01T22:52:18.490Z,70.50
2022-08-01T22:54:50.856Z,70.50
2022-08-01T22:57:25.304Z,70.50
2022-08-01T23:00:01.231Z,70.60
2022-08-01T23:02:33.023Z,70.70
2022-08-01T23:05:07.069Z,70.80
2022-08-01T23:07:39.681Z,70.70
2022-08-01T23:10:08.307Z,70.60
2022-08-01T23:12:36.498Z,71.40
2022-08-01T23:15:04.003Z,70.60
2022-08-01T23:17:31.646Z,70.50
2022-08-01T23:20:00.683Z,70.60
2022-08-01T23:22:31.146Z,71.00
2022-08-01T23:25:04.166Z,70.70
2022-08-01T23:27:56.032Z,70.60
2022-08-01T23:30:28.353Z,70.50
2022-08-01T23:32:55.484Z,70.40
2022-08-01T23:35:22.518Z,70.20
2022-08-01T23:37:51.036Z,70.00
2022-08-01T23:40:18.862Z,70.10
2022-08-01T23:42:45.769Z,70.00
2022-08-01T23:45:12.526Z,69.80
2022-08-01T23:47:39.440Z,69.90
2022-08-01T23:50:07.708Z,69.80
2022-08-01T23:52:36.846Z,69.70
2022-08-01T23:55:17.053Z,69.80
2022-08-01T23:57:44.404Z,69.70
